createdAt,value
2018-05-06T00:01:39.088Z,102462.91
2018-05-06T00:04:08.392Z,102458.72
2018-05-06T00:06:37.731Z,102462.08
2018-05-06T00:09:08.807Z,102467.48
2018-05-06T00:11:38.468Z,102467.34
2018-05-06T00:14:07.508Z,102469.27
2018-05-06T00:16:37.246Z,102459.59
2018-05-06T00:19:06.623Z,102464.34
2018-05-06T00:21:36.497Z,102456.89
2018-05-06T00:24:05.883Z,102459.07
2018-05-06T00:26:35.003Z,102459.89
2018-05-06T00:29:05.921Z,102460.96
2018-05-06T00:31:36.372Z,102462.11
2018-05-06T00:34:07.927Z,102463.49
2018-05-06T00:36:38.209Z,102465.77
2018-05-06T00:39:10.824Z,102465.72
2018-05-06T00:41:39.972Z,102469.41
2018-05-06T00:44:09.106Z,102475.42
2018-05-06T00:46:40.467Z,102477.65
2018-05-06T00:49:10.521Z,102478.16
2018-05-06T00:51:39.868Z,102473.09
2018-05-06T00:54:46.628Z,102478.22
2018-05-06T00:57:16.046Z,102472.52
2018-05-06T00:59:45.019Z,102468.24
2018-05-06T01:02:14.416Z,102464.60
2018-05-06T01:04:45.476Z,102465.23
2018-05-06T01:07:17.526Z,102468.80
2018-05-06T01:09:48.725Z,102465.09
2018-05-06T01:12:19.966Z,102470.84
2018-05-06T01:14:52.615Z,102466.58
2018-05-06T01:17:24.138Z,102469.78
2018-05-06T01:19:54.057Z,102470.25
2018-05-06T01:22:24.811Z,102473.03
2018-05-06T01:24:54.322Z,102469.59
2018-05-06T01:27:25.115Z,102465.84
2018-05-06T01:29:54.807Z,102471.16
2018-05-06T01:32:24.687Z,102472.37
2018-05-06T01:34:54.608Z,102461.86
2018-05-06T01:37:25.872Z,102460.27
2018-05-06T01:39:55.608Z,102459.21
2018-05-06T01:42:24.653Z,102457.96
2018-05-06T01:44:53.771Z,102455.55
2018-05-06T01:47:22.960Z,102453.64
2018-05-06T01:49:54.376Z,102458.20
2018-05-06T01:52:24.269Z,102455.14
2018-05-06T01:54:55.559Z,102459.20
2018-05-06T01:57:24.925Z,102452.72
2018-05-06T01:59:56.197Z,102453.75
2018-05-06T02:02:27.413Z,102453.12
2018-05-06T02:04:56.757Z,102447.06
2018-05-06T02:07:26.554Z,102446.06
2018-05-06T02:09:57.854Z,102447.23
2018-05-06T02:12:27.509Z,102447.37
2018-05-06T02:14:58.210Z,102450.03
2018-05-06T02:17:29.579Z,102448.31
2018-05-06T02:20:00.711Z,102448.64
2018-05-06T02:22:29.819Z,102450.97
2018-05-06T02:24:59.410Z,102439.64
2018-05-06T02:27:28.549Z,102440.28
2018-05-06T02:29:58.409Z,102436.91
2018-05-06T02:32:27.614Z,102430.30
2018-05-06T02:34:56.654Z,102435.27
2018-05-06T02:37:27.190Z,102441.09
2018-05-06T02:40:00.351Z,102440.20
2018-05-06T02:42:29.863Z,102434.06
2018-05-06T02:45:01.640Z,102435.59
2018-05-06T02:47:31.821Z,102436.19
2018-05-06T02:50:01.549Z,102439.96
2018-05-06T02:52:31.397Z,102431.25
2018-05-06T02:55:01.347Z,102432.61
2018-05-06T02:57:32.096Z,102428.73
2018-05-06T03:00:02.019Z,102429.20
2018-05-06T03:02:31.790Z,102426.11
2018-05-06T03:05:02.731Z,102431.94
2018-05-06T03:07:32.358Z,102421.38
2018-05-06T03:10:03.069Z,102418.83
2018-05-06T03:12:32.320Z,102415.41
2018-05-06T03:15:03.227Z,102413.75
2018-05-06T03:17:32.429Z,102418.70
2018-05-06T03:20:01.772Z,102414.55
2018-05-06T03:22:32.141Z,102409.16
2018-05-06T03:25:01.064Z,102407.06
2018-05-06T03:27:31.961Z,102406.02
2018-05-06T03:30:02.072Z,102405.70
2018-05-06T03:32:31.230Z,102403.48
2018-05-06T03:35:00.563Z,102405.87
2018-05-06T03:37:31.063Z,102415.16
2018-05-06T03:40:01.976Z,102415.14
2018-05-06T03:42:33.507Z,102409.96
2018-05-06T03:45:04.730Z,102401.97
2018-05-06T03:47:34.184Z,102404.69
2018-05-06T03:50:03.521Z,102405.09
2018-05-06T03:52:32.665Z,102403.17
2018-05-06T03:55:03.125Z,102403.05
2018-05-06T03:58:13.526Z,102402.53
2018-05-06T04:00:45.157Z,102405.58
2018-05-06T04:03:14.271Z,102411.85
2018-05-06T04:05:43.609Z,102414.88
2018-05-06T04:08:15.291Z,102418.61
2018-05-06T04:10:45.960Z,102420.39
2018-05-06T04:13:16.714Z,102424.17
2018-05-06T04:15:46.140Z,102420.37
2018-05-06T04:18:17.066Z,102422.47
2018-05-06T04:20:46.452Z,102423.03
2018-05-06T04:23:17.734Z,102430.35
2018-05-06T04:25:48.125Z,102421.47
2018-05-06T04:28:18.762Z,102428.64
2018-05-06T04:30:48.115Z,102427.25
2018-05-06T04:33:17.436Z,102426.91
2018-05-06T04:35:46.767Z,102430.80
2018-05-06T04:38:17.820Z,102437.16
2018-05-06T04:40:46.608Z,102439.92
2018-05-06T04:43:17.621Z,102444.91
2018-05-06T04:45:46.852Z,102444.83
2018-05-06T04:48:15.730Z,102444.63
2018-05-06T04:50:44.843Z,102448.65
2018-05-06T04:53:15.482Z,102451.27
2018-05-06T04:55:46.212Z,102459.13
2018-05-06T04:58:17.638Z,102458.67
2018-05-06T05:00:48.937Z,102453.52
2018-05-06T05:03:18.716Z,102458.22
2018-05-06T05:05:49.366Z,102454.28
2018-05-06T05:08:20.068Z,102452.88
2018-05-06T05:10:49.169Z,102452.50
2018-05-06T05:13:19.810Z,102447.04
2018-05-06T05:15:50.414Z,102455.80
2018-05-06T05:18:19.534Z,102447.48
2018-05-06T05:20:50.277Z,102453.37
2018-05-06T05:23:19.380Z,102453.23
2018-05-06T05:25:49.168Z,102457.86
2018-05-06T05:28:18.263Z,102463.53
2018-05-06T05:30:48.197Z,102458.09
2018-05-06T05:33:17.568Z,102463.64
2018-05-06T05:35:46.887Z,102465.67
2018-05-06T05:38:16.125Z,102467.47
2018-05-06T05:40:46.775Z,102472.83
2018-05-06T05:43:16.701Z,102473.89
2018-05-06T05:45:46.415Z,102475.23
2018-05-06T05:48:17.018Z,102469.36
2018-05-06T05:50:47.607Z,102473.02
2018-05-06T05:53:19.463Z,102470.36
2018-05-06T05:55:48.851Z,102477.39
2018-05-06T05:58:18.502Z,102471.30
2018-05-06T06:00:47.938Z,102474.83
2018-05-06T06:03:18.798Z,102485.73
2018-05-06T06:05:49.817Z,102479.30
2018-05-06T06:08:21.221Z,102484.75
2018-05-06T06:10:51.117Z,102485.27
2018-05-06T06:13:20.696Z,102481.23
2018-05-06T06:15:50.207Z,102485.22
2018-05-06T06:18:19.378Z,102491.06
2018-05-06T06:20:48.925Z,102491.51
2018-05-06T06:23:18.285Z,102487.68
2018-05-06T06:25:49.657Z,102485.47
2018-05-06T06:28:19.599Z,102490.17
2018-05-06T06:30:49.014Z,102488.52
2018-05-06T06:33:20.103Z,102491.97
2018-05-06T06:35:50.530Z,102494.69
2018-05-06T06:38:22.120Z,102488.98
2018-05-06T06:40:52.795Z,102495.28
2018-05-06T06:43:23.788Z,102497.31
2018-05-06T06:45:55.230Z,102505.00
2018-05-06T06:48:26.172Z,102509.79
2018-05-06T06:50:57.646Z,102510.03
2018-05-06T06:53:28.579Z,102512.90
2018-05-06T06:55:59.203Z,102512.20
2018-05-06T06:58:29.113Z,102514.73
2018-05-06T07:00:59.162Z,102514.19
2018-05-06T07:03:29.854Z,102514.42
2018-05-06T07:05:59.388Z,102514.08
2018-05-06T07:08:29.599Z,102517.53
2018-05-06T07:10:59.189Z,102511.96
2018-05-06T07:13:31.165Z,102521.47
2018-05-06T07:16:01.997Z,102518.50
2018-05-06T07:18:33.446Z,102514.48
2018-05-06T07:21:04.156Z,102517.71
2018-05-06T07:23:33.877Z,102513.14
2018-05-06T07:26:03.968Z,102513.42
2018-05-06T07:28:33.032Z,102514.33
2018-05-06T07:31:03.774Z,102503.34
2018-05-06T07:33:33.016Z,102505.16
2018-05-06T07:36:03.448Z,102498.20
2018-05-06T07:38:32.835Z,102495.61
2018-05-06T07:41:03.764Z,102493.27
2018-05-06T07:43:34.725Z,102491.70
2018-05-06T07:46:05.933Z,102499.06
2018-05-06T07:48:36.566Z,102493.52
2018-05-06T07:51:05.943Z,102491.37
2018-05-06T07:53:36.339Z,102490.20
2018-05-06T07:56:07.057Z,102483.38
2018-05-06T07:58:36.300Z,102483.11
2018-05-06T08:01:07.082Z,102489.96
2018-05-06T08:03:35.991Z,102487.34
2018-05-06T08:06:06.947Z,102489.94
2018-05-06T08:08:37.327Z,102489.02
2018-05-06T08:11:08.200Z,102488.89
2018-05-06T08:13:38.711Z,102489.36
2018-05-06T08:16:08.655Z,102494.75
2018-05-06T08:18:38.534Z,102484.34
2018-05-06T08:21:08.547Z,102476.69
2018-05-06T08:23:40.032Z,102478.41
2018-05-06T08:26:10.615Z,102479.31
2018-05-06T08:28:41.268Z,102487.83
2018-05-06T08:31:11.240Z,102482.44
2018-05-06T08:33:40.537Z,102490.27
2018-05-06T08:36:09.969Z,102479.20
2018-05-06T08:38:39.360Z,102475.49
2018-05-06T08:41:10.677Z,102471.23
2018-05-06T08:43:42.131Z,102475.33
2018-05-06T08:46:11.771Z,102476.11
2018-05-06T08:48:42.237Z,102470.78
2018-05-06T08:51:11.552Z,102472.63
2018-05-06T08:53:42.000Z,102465.12
2018-05-06T08:56:12.647Z,102460.93
2018-05-06T08:58:43.709Z,102466.73
2018-05-06T09:01:12.599Z,102476.90
2018-05-06T09:03:41.728Z,102471.91
2018-05-06T09:06:11.673Z,102480.55
2018-05-06T09:08:43.177Z,102480.96
2018-05-06T09:11:12.882Z,102486.22
2018-05-06T09:13:43.918Z,102477.91
2018-05-06T09:16:14.947Z,102480.20
2018-05-06T09:18:45.867Z,102470.49
2018-05-06T09:21:16.283Z,102472.16
2018-05-06T09:23:47.259Z,102461.86
2018-05-06T09:26:16.146Z,102464.31
2018-05-06T09:28:46.030Z,102462.55
2018-05-06T09:31:17.760Z,102464.06
2018-05-06T09:33:47.196Z,102462.45
2018-05-06T09:36:16.251Z,102464.20
2018-05-06T09:38:47.305Z,102464.25
2018-05-06T09:41:18.899Z,102466.78
2018-05-06T09:43:49.572Z,102460.37
2018-05-06T09:46:20.616Z,102450.53
2018-05-06T09:48:51.068Z,102454.49
2018-05-06T09:51:20.960Z,102457.61
2018-05-06T09:53:50.500Z,102450.08
2018-05-06T09:56:19.333Z,102452.18
2018-05-06T09:58:50.225Z,102450.81
2018-05-06T10:01:20.249Z,102446.08
2018-05-06T10:03:49.434Z,102440.36
2018-05-06T10:06:18.774Z,102444.43
2018-05-06T10:08:47.946Z,102441.08
2018-05-06T10:11:17.487Z,102444.75
2018-05-06T10:13:46.855Z,102438.91
2018-05-06T10:16:17.563Z,102443.83
2018-05-06T10:18:48.708Z,102437.62
2018-05-06T10:21:18.479Z,102433.91
2018-05-06T10:23:49.467Z,102436.02
2018-05-06T10:26:19.965Z,102439.55
2018-05-06T10:28:49.290Z,102438.42
2018-05-06T10:31:18.180Z,102431.11
2018-05-06T10:33:48.064Z,102427.04
2018-05-06T10:36:17.583Z,102422.03
2018-05-06T10:38:46.473Z,102419.28
2018-05-06T10:41:17.285Z,102419.75
2018-05-06T10:43:48.115Z,102410.68
2018-05-06T10:46:19.298Z,102405.54
2018-05-06T10:48:50.200Z,102411.85
2018-05-06T10:51:19.745Z,102406.18
2018-05-06T10:53:49.211Z,102395.64
2018-05-06T10:56:20.669Z,102391.64
2018-05-06T10:58:51.402Z,102395.20
2018-05-06T11:01:21.112Z,102398.43
2018-05-06T11:03:50.279Z,102391.05
2018-05-06T11:06:21.073Z,102383.69
2018-05-06T11:08:50.590Z,102380.34
2018-05-06T11:11:21.264Z,102381.11
2018-05-06T11:13:52.541Z,102386.06
2018-05-06T11:16:21.924Z,102383.19
2018-05-06T11:18:51.137Z,102380.13
2018-05-06T11:21:22.586Z,102379.19
2018-05-06T11:23:52.219Z,102380.22
2018-05-06T11:26:21.964Z,102381.38
2018-05-06T11:28:52.309Z,102378.57
2018-05-06T11:31:23.059Z,102375.70
2018-05-06T11:33:52.485Z,102373.34
2018-05-06T11:36:23.172Z,102367.66
2018-05-06T11:38:53.527Z,102376.63
2018-05-06T11:41:24.919Z,102386.54
2018-05-06T11:43:55.302Z,102367.63
2018-05-06T11:46:25.127Z,102367.19
2018-05-06T11:48:55.031Z,102365.31
2018-05-06T11:51:26.241Z,102361.66
2018-05-06T11:53:57.138Z,102369.28
2018-05-06T11:56:26.646Z,102353.95
2018-05-06T11:58:55.729Z,102349.98
2018-05-06T12:01:26.441Z,102353.66
2018-05-06T12:03:55.851Z,102345.53
2018-05-06T12:06:24.731Z,102349.34
2018-05-06T12:08:53.631Z,102340.20
2018-05-06T12:11:23.021Z,102345.75
2018-05-06T12:13:52.845Z,102340.38
2018-05-06T12:16:23.797Z,102347.24
2018-05-06T12:18:55.321Z,102349.09
2018-05-06T12:21:26.156Z,102337.95
2018-05-06T12:23:57.510Z,102326.49
2018-05-06T12:26:27.416Z,102326.41
2018-05-06T12:28:56.746Z,102325.69
2018-05-06T12:31:27.660Z,102323.95
2018-05-06T12:33:56.744Z,102314.81
2018-05-06T12:36:27.464Z,102319.68
2018-05-06T12:38:58.935Z,102317.05
2018-05-06T12:41:30.379Z,102307.15
2018-05-06T12:44:01.610Z,102306.30
2018-05-06T12:46:31.273Z,102298.69
2018-05-06T12:49:00.833Z,102303.84
2018-05-06T12:51:31.459Z,102300.92
2018-05-06T12:54:00.568Z,102301.64
2018-05-06T12:56:31.401Z,102291.53
2018-05-06T12:59:00.769Z,102293.70
2018-05-06T13:01:30.563Z,102298.30
2018-05-06T13:04:01.273Z,102291.47
2018-05-06T13:06:32.169Z,102290.61
2018-05-06T13:09:02.870Z,102286.06
2018-05-06T13:11:33.598Z,102295.00
2018-05-06T13:14:04.115Z,102282.93
2018-05-06T13:16:35.004Z,102281.12
2018-05-06T13:19:05.342Z,102278.17
2018-05-06T13:21:37.282Z,102273.51
2018-05-06T13:24:06.916Z,102278.80
2018-05-06T13:26:37.336Z,102275.91
2018-05-06T13:29:08.148Z,102281.41
2018-05-06T13:31:38.893Z,102271.00
2018-05-06T13:34:08.045Z,102283.78
2018-05-06T13:36:38.712Z,102271.26
2018-05-06T13:39:09.610Z,102262.17
2018-05-06T13:41:40.511Z,102252.66
2018-05-06T13:44:11.134Z,102255.45
2018-05-06T13:46:41.721Z,102262.16
2018-05-06T13:49:11.412Z,102251.77
2018-05-06T13:51:42.496Z,102247.59
2018-05-06T13:54:12.120Z,102240.43
2018-05-06T13:56:43.352Z,102239.63
2018-05-06T13:59:14.552Z,102253.14
2018-05-06T14:01:44.181Z,102238.97
2018-05-06T14:04:13.277Z,102238.61
2018-05-06T14:06:44.194Z,102237.73
2018-05-06T14:09:15.952Z,102228.27
2018-05-06T14:11:45.031Z,102227.56
2018-05-06T14:14:15.764Z,102226.98
2018-05-06T14:16:45.531Z,102225.77
2018-05-06T14:19:15.441Z,102222.55
2018-05-06T14:21:44.601Z,102228.45
2018-05-06T14:24:15.822Z,102225.25
2018-05-06T14:26:44.929Z,102227.73
2018-05-06T14:29:15.817Z,102221.84
2018-05-06T14:31:47.259Z,102219.63
2018-05-06T14:34:16.152Z,102217.60
2018-05-06T14:36:44.996Z,102217.41
2018-05-06T14:39:15.625Z,102215.78
2018-05-06T14:41:46.536Z,102217.19
2018-05-06T14:44:16.270Z,102218.91
2018-05-06T14:47:26.973Z,102222.95
2018-05-06T14:49:56.086Z,102214.59
2018-05-06T14:52:25.171Z,102205.12
2018-05-06T14:54:55.979Z,102213.39
2018-05-06T14:57:25.553Z,102206.87
2018-05-06T14:59:56.165Z,102207.59
2018-05-06T15:02:25.227Z,102205.45
2018-05-06T15:04:54.904Z,102200.71
2018-05-06T15:07:25.306Z,102198.73
2018-05-06T15:09:54.666Z,102197.95
2018-05-06T15:12:25.535Z,102195.89
2018-05-06T15:14:56.160Z,102187.77
2018-05-06T15:17:26.119Z,102184.65
2018-05-06T15:19:55.428Z,102189.20
2018-05-06T15:22:25.822Z,102190.34
2018-05-06T15:24:54.864Z,102181.33
2018-05-06T15:27:25.654Z,102183.51
2018-05-06T15:29:54.963Z,102179.20
2018-05-06T15:32:24.093Z,102178.56
2018-05-06T15:34:54.190Z,102172.36
2018-05-06T15:37:23.449Z,102172.67
2018-05-06T15:39:52.804Z,102161.86
2018-05-06T15:42:23.497Z,102161.97
2018-05-06T15:44:52.820Z,102167.97
2018-05-06T15:47:23.007Z,102156.27
2018-05-06T15:49:52.149Z,102168.20
2018-05-06T15:52:22.735Z,102158.23
2018-05-06T15:54:53.688Z,102164.52
2018-05-06T15:57:23.495Z,102154.78
2018-05-06T15:59:54.308Z,102159.80
2018-05-06T16:03:04.049Z,102144.80
2018-05-06T16:05:34.405Z,102146.58
2018-05-06T16:08:03.436Z,102147.96
2018-05-06T16:10:34.185Z,102150.90
2018-05-06T16:13:03.576Z,102142.27
2018-05-06T16:15:34.255Z,102136.45
2018-05-06T16:18:03.621Z,102130.91
2018-05-06T16:20:34.020Z,102127.95
2018-05-06T16:23:04.729Z,102130.19
2018-05-06T16:25:35.921Z,102120.64
2018-05-06T16:28:04.738Z,102121.98
2018-05-06T16:30:33.821Z,102120.79
2018-05-06T16:33:04.629Z,102117.37
2018-05-06T16:35:36.034Z,102110.01
2018-05-06T16:38:06.887Z,102111.27
2018-05-06T16:40:37.707Z,102109.58
2018-05-06T16:43:06.695Z,102102.83
2018-05-06T16:45:35.542Z,102108.96
2018-05-06T16:48:06.290Z,102103.84
2018-05-06T16:50:37.227Z,102105.41
2018-05-06T16:53:06.775Z,102098.19
2018-05-06T16:55:37.100Z,102100.55
2018-05-06T16:58:07.810Z,102105.54
2018-05-06T17:00:38.589Z,102093.88
2018-05-06T17:03:07.968Z,102101.52
2018-05-06T17:05:38.524Z,102093.06
2018-05-06T17:08:09.119Z,102096.74
2018-05-06T17:10:40.500Z,102093.19
2018-05-06T17:13:11.215Z,102089.05
2018-05-06T17:15:42.359Z,102088.50
2018-05-06T17:18:13.818Z,102094.70
2018-05-06T17:20:45.223Z,102093.77
2018-05-06T17:23:16.132Z,102090.50
2018-05-06T17:25:47.071Z,102092.74
2018-05-06T17:28:15.964Z,102092.74
2018-05-06T17:30:45.035Z,102087.52
2018-05-06T17:33:14.092Z,102092.35
2018-05-06T17:35:43.322Z,102096.67
2018-05-06T17:38:12.456Z,102096.88
2018-05-06T17:40:43.071Z,102094.67
2018-05-06T17:43:12.231Z,102092.12
2018-05-06T17:45:43.511Z,102099.51
2018-05-06T17:48:15.347Z,102094.61
2018-05-06T17:50:45.764Z,102092.34
2018-05-06T17:53:17.029Z,102088.20
2018-05-06T17:55:48.815Z,102091.55
2018-05-06T17:58:17.959Z,102086.19
2018-05-06T18:00:47.300Z,102086.40
2018-05-06T18:03:16.443Z,102090.48
2018-05-06T18:05:45.740Z,102100.35
2018-05-06T18:08:16.308Z,102088.09
2018-05-06T18:10:45.649Z,102102.83
2018-05-06T18:13:16.519Z,102094.62
2018-05-06T18:15:45.396Z,102093.89
2018-05-06T18:18:15.003Z,102096.11
2018-05-06T18:20:44.073Z,102091.64
2018-05-06T18:23:13.328Z,102092.66
2018-05-06T18:25:44.067Z,102096.41
2018-05-06T18:28:13.108Z,102101.36
2018-05-06T18:30:43.998Z,102091.08
2018-05-06T18:33:13.391Z,102089.53
2018-05-06T18:35:42.722Z,102087.92
2018-05-06T18:38:13.354Z,102095.80
2018-05-06T18:40:43.205Z,102093.40
2018-05-06T18:43:14.534Z,102090.42
2018-05-06T18:45:45.405Z,102094.69
2018-05-06T18:48:15.193Z,102103.03
2018-05-06T18:50:47.347Z,102096.80
2018-05-06T18:53:18.860Z,102100.98
2018-05-06T18:55:48.427Z,102100.78
2018-05-06T18:58:19.307Z,102100.97
2018-05-06T19:00:50.541Z,102101.73
2018-05-06T19:03:22.031Z,102105.31
2018-05-06T19:05:51.708Z,102102.89
2018-05-06T19:08:21.139Z,102105.31
2018-05-06T19:10:51.877Z,102109.62
2018-05-06T19:13:22.592Z,102104.09
2018-05-06T19:15:51.954Z,102109.25
2018-05-06T19:18:21.340Z,102106.18
2018-05-06T19:20:50.545Z,102110.23
2018-05-06T19:23:19.911Z,102109.36
2018-05-06T19:25:49.018Z,102108.55
2018-05-06T19:28:19.752Z,102113.02
2018-05-06T19:30:50.670Z,102114.76
2018-05-06T19:33:22.413Z,102112.38
2018-05-06T19:35:52.242Z,102115.26
2018-05-06T19:38:21.650Z,102118.11
2018-05-06T19:40:51.322Z,102110.18
2018-05-06T19:43:20.536Z,102119.32
2018-05-06T19:45:49.694Z,102122.98
2018-05-06T19:48:18.930Z,102130.31
2018-05-06T19:50:49.869Z,102131.19
2018-05-06T19:53:20.769Z,102134.41
2018-05-06T19:55:50.606Z,102130.66
2018-05-06T19:58:19.976Z,102131.85
2018-05-06T20:00:49.809Z,102130.77
2018-05-06T20:03:19.229Z,102129.45
2018-05-06T20:05:49.591Z,102125.55
2018-05-06T20:08:20.492Z,102133.60
2018-05-06T20:10:49.868Z,102130.46
2018-05-06T20:13:20.157Z,102132.47
2018-05-06T20:15:51.045Z,102136.59
2018-05-06T20:18:21.935Z,102137.86
2018-05-06T20:20:51.115Z,102138.64
2018-05-06T20:23:22.136Z,102137.63
2018-05-06T20:25:51.812Z,102131.59
2018-05-06T20:28:21.693Z,102133.34
2018-05-06T20:30:53.087Z,102132.97
2018-05-06T20:33:22.686Z,102140.44
2018-05-06T20:35:53.538Z,102142.64
2018-05-06T20:38:27.752Z,102141.97
2018-05-06T20:40:58.567Z,102138.37
2018-05-06T20:43:29.331Z,102142.97
2018-05-06T20:46:00.649Z,102141.34
2018-05-06T20:48:31.525Z,102138.81
2018-05-06T20:51:01.763Z,102139.09
2018-05-06T20:53:32.206Z,102140.95
2018-05-06T20:56:03.126Z,102143.23
2018-05-06T20:58:34.082Z,102148.66
2018-05-06T21:01:04.044Z,102150.26
2018-05-06T21:03:34.800Z,102148.11
2018-05-06T21:06:03.938Z,102153.22
2018-05-06T21:08:34.652Z,102149.12
2018-05-06T21:11:03.758Z,102147.06
2018-05-06T21:13:32.864Z,102143.98
2018-05-06T21:16:05.276Z,102145.95
2018-05-06T21:18:35.695Z,102145.20
2018-05-06T21:21:05.673Z,102147.25
2018-05-06T21:23:35.102Z,102143.66
2018-05-06T21:26:04.238Z,102148.33
2018-05-06T21:28:35.323Z,102145.09
2018-05-06T21:31:04.553Z,102142.32
2018-05-06T21:33:34.500Z,102144.06
2018-05-06T21:36:03.764Z,102148.34
2018-05-06T21:38:32.913Z,102151.36
2018-05-06T21:41:03.595Z,102146.66
2018-05-06T21:43:34.408Z,102142.10
2018-05-06T21:46:03.766Z,102139.36
2018-05-06T21:48:34.461Z,102136.58
2018-05-06T21:51:05.397Z,102141.83
2018-05-06T21:53:35.279Z,102137.88
2018-05-06T21:56:04.763Z,102139.21
2018-05-06T21:58:35.525Z,102141.86
2018-05-06T22:01:07.150Z,102147.78
2018-05-06T22:03:37.178Z,102147.48
2018-05-06T22:06:08.081Z,102148.59
2018-05-06T22:08:39.117Z,102152.95
2018-05-06T22:11:10.021Z,102153.42
2018-05-06T22:13:39.874Z,102151.23
2018-05-06T22:16:09.232Z,102148.20
2018-05-06T22:18:38.999Z,102148.83
2018-05-06T22:21:08.684Z,102140.05
2018-05-06T22:23:38.244Z,102153.65
2018-05-06T22:26:09.386Z,102149.88
2018-05-06T22:28:40.285Z,102154.36
2018-05-06T22:31:09.689Z,102157.91
2018-05-06T22:33:40.497Z,102162.22
2018-05-06T22:36:11.650Z,102157.00
2018-05-06T22:38:42.780Z,102154.48
2018-05-06T22:41:12.178Z,102149.22
2018-05-06T22:43:42.776Z,102152.02
2018-05-06T22:46:13.481Z,102152.63
2018-05-06T22:48:44.388Z,102153.16
2018-05-06T22:51:14.141Z,102152.48
2018-05-06T22:53:44.967Z,102157.61
2018-05-06T22:56:14.956Z,102147.41
2018-05-06T22:58:43.843Z,102147.06
2018-05-06T23:01:13.471Z,102147.41
2018-05-06T23:03:43.530Z,102146.05
2018-05-06T23:06:14.319Z,102141.47
2018-05-06T23:08:45.909Z,102139.52
2018-05-06T23:11:15.309Z,102142.28
2018-05-06T23:13:45.985Z,102136.58
2018-05-06T23:16:15.380Z,102138.27
2018-05-06T23:18:45.039Z,102135.48
2018-05-06T23:21:15.748Z,102138.95
2018-05-06T23:23:46.625Z,102139.79
2018-05-06T23:26:15.699Z,102135.83
2018-05-06T23:28:46.447Z,102140.55
2018-05-06T23:31:17.558Z,102138.19
2018-05-06T23:33:47.459Z,102139.16
2018-05-06T23:36:18.888Z,102137.06
2018-05-06T23:38:48.922Z,102145.86
2018-05-06T23:41:18.052Z,102140.19
2018-05-06T23:43:49.571Z,102141.16
2018-05-06T23:46:20.333Z,102137.23
2018-05-06T23:48:51.292Z,102148.06
2018-05-06T23:51:22.701Z,102148.61
2018-05-06T23:53:53.782Z,102145.47
2018-05-06T23:56:23.794Z,102146.44
2018-05-06T23:58:52.892Z,102142.09
